createdAt,value
2018-06-27T00:01:25.280Z,53.00
2018-06-27T00:03:53.645Z,53.10
2018-06-27T00:06:21.985Z,53.20
2018-06-27T00:08:50.390Z,53.20
2018-06-27T00:11:18.782Z,53.20
2018-06-27T00:13:47.168Z,53.20
2018-06-27T00:16:15.538Z,53.30
2018-06-27T00:18:43.894Z,53.30
2018-06-27T00:21:12.231Z,53.40
2018-06-27T00:26:08.665Z,53.50
2018-06-27T00:31:05.148Z,53.60
2018-06-27T00:33:33.493Z,53.60
2018-06-27T00:36:01.880Z,53.60
2018-06-27T00:38:30.275Z,53.70
2018-06-27T00:40:58.652Z,53.80
2018-06-27T00:43:27.026Z,54.00
2018-06-27T00:45:55.404Z,53.90
2018-06-27T00:48:23.796Z,54.10
2018-06-27T00:50:52.197Z,54.20
2018-06-27T00:53:24.991Z,54.80
2018-06-27T00:55:53.432Z,54.20
2018-06-27T00:58:21.815Z,54.40
2018-06-27T01:00:50.200Z,54.40
2018-06-27T01:03:18.577Z,54.40
2018-06-27T01:05:46.949Z,54.50
2018-06-27T01:08:15.329Z,54.40
2018-06-27T01:10:43.748Z,54.50
2018-06-27T01:13:12.245Z,54.40
2018-06-27T01:15:40.571Z,54.40
2018-06-27T01:18:08.927Z,54.50
2018-06-27T01:20:37.307Z,54.40
2018-06-27T01:23:05.791Z,54.50
2018-06-27T01:25:34.169Z,54.50
2018-06-27T01:28:02.545Z,54.50
2018-06-27T01:30:30.965Z,54.70
2018-06-27T01:32:59.352Z,54.70
2018-06-27T01:35:27.702Z,54.70
2018-06-27T01:37:56.079Z,54.70
2018-06-27T01:40:24.411Z,55.50
2018-06-27T01:42:52.774Z,54.70
2018-06-27T01:45:21.120Z,54.70
2018-06-27T01:47:49.828Z,54.90
2018-06-27T01:50:18.221Z,54.80
2018-06-27T01:52:46.576Z,54.90
2018-06-27T01:55:14.951Z,54.90
2018-06-27T01:57:43.284Z,54.80
2018-06-27T02:00:11.630Z,54.90
2018-06-27T02:07:36.217Z,54.90
2018-06-27T02:10:04.584Z,55.00
2018-06-27T02:12:32.951Z,54.90
2018-06-27T02:15:01.316Z,55.10
2018-06-27T02:17:29.647Z,55.10
2018-06-27T02:19:58.039Z,55.10
2018-06-27T02:27:22.632Z,55.40
2018-06-27T02:29:51.017Z,55.30
2018-06-27T02:32:19.408Z,55.40
2018-06-27T02:34:47.783Z,55.40
2018-06-27T02:37:16.161Z,55.40
2018-06-27T02:39:44.530Z,55.40
2018-06-27T02:42:12.898Z,55.50
2018-06-27T02:44:41.274Z,55.50
2018-06-27T02:47:09.693Z,55.50
2018-06-27T02:49:38.063Z,55.50
2018-06-27T02:52:06.402Z,55.50
2018-06-27T02:54:34.763Z,55.60
2018-06-27T02:57:03.122Z,55.60
2018-06-27T02:59:31.523Z,55.70
2018-06-27T03:01:59.914Z,55.90
2018-06-27T03:04:28.303Z,55.90
2018-06-27T03:06:56.667Z,55.90
2018-06-27T03:09:25.465Z,56.00
2018-06-27T03:11:53.794Z,56.10
2018-06-27T03:14:22.146Z,56.00
2018-06-27T03:21:46.670Z,56.10
2018-06-27T03:26:43.143Z,56.20
2018-06-27T03:29:11.559Z,56.30
2018-06-27T03:31:39.896Z,56.30
2018-06-27T03:34:08.318Z,56.30
2018-06-27T03:36:36.754Z,56.30
2018-06-27T03:39:07.587Z,56.40
2018-06-27T03:41:35.938Z,56.30
2018-06-27T03:46:32.412Z,56.30
2018-06-27T03:49:00.800Z,56.40
2018-06-27T03:51:29.175Z,56.40
2018-06-27T03:53:57.535Z,56.50
2018-06-27T03:56:26.372Z,56.50
2018-06-27T03:58:54.782Z,56.40
2018-06-27T04:01:23.108Z,56.50
2018-06-27T04:03:51.577Z,56.40
2018-06-27T04:06:19.926Z,56.50
2018-06-27T04:11:16.330Z,56.60
2018-06-27T04:13:44.730Z,56.60
2018-06-27T04:16:13.129Z,56.60
2018-06-27T04:21:09.632Z,56.60
2018-06-27T04:23:38.002Z,56.60
2018-06-27T04:26:06.398Z,56.60
2018-06-27T04:28:34.779Z,56.70
2018-06-27T04:31:03.138Z,56.60
2018-06-27T04:33:31.536Z,56.50
2018-06-27T04:35:59.943Z,56.50
2018-06-27T04:40:56.418Z,56.70
2018-06-27T04:43:24.794Z,56.60
2018-06-27T04:45:53.160Z,56.70
2018-06-27T04:48:21.604Z,56.70
2018-06-27T04:50:49.963Z,56.80
2018-06-27T04:53:18.320Z,56.80
2018-06-27T04:55:46.719Z,56.80
2018-06-27T04:58:15.082Z,56.80
2018-06-27T05:00:43.474Z,56.90
2018-06-27T05:03:11.828Z,57.00
2018-06-27T05:05:40.188Z,56.90
2018-06-27T05:08:08.531Z,56.90
2018-06-27T05:10:36.889Z,56.90
2018-06-27T05:13:05.226Z,56.70
2018-06-27T05:15:33.659Z,57.10
2018-06-27T05:18:02.001Z,56.90
2018-06-27T05:20:30.366Z,57.00
2018-06-27T05:22:58.731Z,56.80
2018-06-27T05:25:27.167Z,57.00
2018-06-27T05:27:55.561Z,57.00
2018-06-27T05:35:26.475Z,57.00
2018-06-27T05:37:54.845Z,57.00
2018-06-27T05:42:50.394Z,56.30
2018-06-27T05:45:18.785Z,57.00
2018-06-27T05:47:47.169Z,57.00
2018-06-27T05:50:15.548Z,57.00
2018-06-27T05:52:43.907Z,57.00
2018-06-27T05:55:12.301Z,56.90
2018-06-27T05:57:41.394Z,56.80
2018-06-27T06:00:12.091Z,56.80
2018-06-27T06:02:40.459Z,56.80
2018-06-27T06:05:08.918Z,56.60
2018-06-27T06:07:37.275Z,56.60
2018-06-27T06:10:05.697Z,56.60
2018-06-27T06:12:34.110Z,56.70
2018-06-27T06:15:02.508Z,56.60
2018-06-27T06:17:30.869Z,56.60
2018-06-27T06:19:59.253Z,56.60
2018-06-27T06:22:27.625Z,56.30
2018-06-27T06:24:56.009Z,56.30
2018-06-27T06:27:24.406Z,55.90
2018-06-27T06:29:52.757Z,55.70
2018-06-27T06:32:21.131Z,55.70
2018-06-27T06:34:49.492Z,55.60
2018-06-27T06:37:17.814Z,55.50
2018-06-27T06:39:46.219Z,55.20
2018-06-27T06:42:14.575Z,55.20
2018-06-27T06:44:43.014Z,55.40
2018-06-27T06:47:11.365Z,55.30
2018-06-27T06:49:39.722Z,55.30
2018-06-27T06:52:08.145Z,54.90
2018-06-27T06:54:36.519Z,55.50
2018-06-27T06:57:05.160Z,54.90
2018-06-27T07:09:26.225Z,54.40
2018-06-27T07:14:22.925Z,54.80
2018-06-27T07:16:51.558Z,54.00
2018-06-27T07:24:16.093Z,53.50
2018-06-27T07:26:44.540Z,53.30
2018-06-27T07:29:12.900Z,53.10
2018-06-27T07:31:41.391Z,52.80
2018-06-27T07:34:09.751Z,52.90
2018-06-27T07:36:38.089Z,52.80
2018-06-27T07:39:09.010Z,52.60
2018-06-27T07:44:05.739Z,52.30
2018-06-27T07:46:34.480Z,51.90
2018-06-27T07:49:02.815Z,51.90
2018-06-27T07:51:31.218Z,52.00
2018-06-27T07:53:59.629Z,51.90
2018-06-27T07:56:35.732Z,51.50
2018-06-27T07:59:08.153Z,51.00
2018-06-27T08:01:50.413Z,51.10
2018-06-27T08:06:56.592Z,50.70
2018-06-27T08:09:26.799Z,50.50
2018-06-27T08:11:55.177Z,50.20
2018-06-27T08:14:29.132Z,50.00
2018-06-27T08:16:59.019Z,50.30
2018-06-27T08:19:37.594Z,50.20
2018-06-27T08:24:37.146Z,49.50
2018-06-27T08:27:10.654Z,49.70
2018-06-27T08:29:44.109Z,49.50
2018-06-27T08:32:18.538Z,49.30
2018-06-27T08:37:15.873Z,48.90
2018-06-27T08:42:34.908Z,48.90
2018-06-27T08:45:08.826Z,49.50
2018-06-27T08:47:40.468Z,48.90
2018-06-27T08:50:12.248Z,48.60
2018-06-27T08:52:40.722Z,48.20
2018-06-27T08:55:15.932Z,47.80
2018-06-27T08:57:51.336Z,47.60
2018-06-27T09:00:24.147Z,47.00
2018-06-27T09:02:59.639Z,47.70
2018-06-27T09:05:32.996Z,47.70
2018-06-27T09:08:06.838Z,47.20
2018-06-27T09:10:43.240Z,47.70
2018-06-27T09:13:17.675Z,48.00
2018-06-27T09:15:55.066Z,48.10
2018-06-27T09:18:23.597Z,48.80
2018-06-27T09:20:51.991Z,48.80
2018-06-27T09:23:20.880Z,49.00
2018-06-27T09:25:49.327Z,49.30
2018-06-27T09:28:18.292Z,49.60
2018-06-27T09:30:46.640Z,50.30
2018-06-27T09:33:15.654Z,51.20
2018-06-27T09:35:44.835Z,51.00
2018-06-27T09:38:13.352Z,52.10
2018-06-27T09:40:42.406Z,52.10
2018-06-27T09:43:11.905Z,52.10
2018-06-27T09:45:40.272Z,50.60
2018-06-27T09:48:08.778Z,50.40
2018-06-27T09:50:37.279Z,49.80
2018-06-27T09:53:05.859Z,48.50
2018-06-27T09:55:34.359Z,47.70
2018-06-27T09:58:02.789Z,47.10
2018-06-27T10:00:36.396Z,46.70
2018-06-27T10:03:04.773Z,45.80
2018-06-27T10:05:33.435Z,45.40
2018-06-27T10:08:01.787Z,44.80
2018-06-27T10:12:58.324Z,43.80
2018-06-27T10:15:28.152Z,43.80
2018-06-27T10:17:57.378Z,43.60
2018-06-27T10:20:25.772Z,43.40
2018-06-27T10:22:54.171Z,43.60
2018-06-27T10:25:22.644Z,44.00
2018-06-27T10:27:51.254Z,44.00
2018-06-27T10:32:47.702Z,43.10
2018-06-27T10:40:12.999Z,42.50
2018-06-27T10:42:41.431Z,42.80
2018-06-27T10:45:09.867Z,42.30
2018-06-27T10:47:38.384Z,41.80
2018-06-27T10:50:06.857Z,42.20
2018-06-27T10:52:35.241Z,42.50
2018-06-27T10:55:07.927Z,42.00
2018-06-27T10:57:36.328Z,41.10
2018-06-27T11:00:05.004Z,41.10
2018-06-27T11:02:33.396Z,41.60
2018-06-27T11:05:01.804Z,41.40
2018-06-27T11:07:30.185Z,41.10
2018-06-27T11:09:59.187Z,41.00
2018-06-27T11:12:27.564Z,40.50
2018-06-27T11:14:56.158Z,39.90
2018-06-27T11:17:24.661Z,39.40
2018-06-27T11:19:53.367Z,39.60
2018-06-27T11:22:22.372Z,39.40
2018-06-27T11:24:50.722Z,39.70
2018-06-27T11:29:47.896Z,39.40
2018-06-27T11:32:16.955Z,39.70
2018-06-27T11:34:45.370Z,39.10
2018-06-27T11:37:14.814Z,38.90
2018-06-27T11:39:43.224Z,38.90
2018-06-27T11:44:40.129Z,39.30
2018-06-27T11:47:08.502Z,39.40
2018-06-27T11:49:36.925Z,39.20
2018-06-27T11:52:05.293Z,39.10
2018-06-27T11:54:33.839Z,39.20
2018-06-27T11:57:02.250Z,38.70
2018-06-27T11:59:30.754Z,37.90
2018-06-27T12:04:27.446Z,36.90
2018-06-27T12:06:55.827Z,37.50
2018-06-27T12:09:24.303Z,37.90
2018-06-27T12:11:52.650Z,36.80
2018-06-27T12:16:49.251Z,35.80
2018-06-27T12:19:17.593Z,36.20
2018-06-27T12:21:46.155Z,35.70
2018-06-27T12:26:42.576Z,34.90
2018-06-27T12:29:10.911Z,35.00
2018-06-27T12:31:39.435Z,35.10
2018-06-27T12:34:07.937Z,35.30
2018-06-27T12:36:36.310Z,34.50
2018-06-27T12:39:07.295Z,34.40
2018-06-27T12:41:35.656Z,34.40
2018-06-27T12:44:04.071Z,34.40
2018-06-27T12:46:32.426Z,35.70
2018-06-27T12:49:00.873Z,36.10
2018-06-27T12:56:25.408Z,37.70
2018-06-27T12:58:53.786Z,37.70
2018-06-27T13:01:22.208Z,37.90
2018-06-27T13:03:50.585Z,38.20
2018-06-27T13:06:18.933Z,37.20
2018-06-27T13:08:47.561Z,37.60
2018-06-27T13:11:15.972Z,38.00
2018-06-27T13:13:44.305Z,38.70
2018-06-27T13:16:12.724Z,39.40
2018-06-27T13:23:37.309Z,38.70
2018-06-27T13:26:06.994Z,38.20
2018-06-27T13:28:35.406Z,38.00
2018-06-27T13:31:03.787Z,37.20
2018-06-27T13:33:32.189Z,37.10
2018-06-27T13:36:00.537Z,37.00
2018-06-27T13:38:28.912Z,37.30
2018-06-27T13:40:57.268Z,37.80
2018-06-27T13:43:25.652Z,37.30
2018-06-27T13:45:54.022Z,37.40
2018-06-27T13:48:22.485Z,36.10
2018-06-27T13:50:50.855Z,36.70
2018-06-27T13:53:19.210Z,36.50
2018-06-27T13:58:15.613Z,36.40
2018-06-27T14:00:43.958Z,35.70
2018-06-27T14:03:12.353Z,35.60
2018-06-27T14:05:40.752Z,35.30
2018-06-27T14:08:09.129Z,34.70
2018-06-27T14:10:37.532Z,34.70
2018-06-27T14:13:05.957Z,34.90
2018-06-27T14:15:34.346Z,34.70
2018-06-27T14:18:02.724Z,34.40
2018-06-27T14:20:31.067Z,34.20
2018-06-27T14:22:59.472Z,33.70
2018-06-27T14:25:27.824Z,33.30
2018-06-27T14:27:56.229Z,33.40
2018-06-27T14:30:24.579Z,33.10
2018-06-27T14:37:49.300Z,34.00
2018-06-27T14:40:17.637Z,33.10
2018-06-27T14:42:46.003Z,32.70
2018-06-27T14:45:14.378Z,31.90
2018-06-27T14:47:42.748Z,31.50
2018-06-27T14:50:11.117Z,30.70
2018-06-27T14:52:39.472Z,31.00
2018-06-27T14:55:09.038Z,30.40
2018-06-27T14:57:37.739Z,30.30
2018-06-27T15:00:07.582Z,30.40
2018-06-27T15:02:35.930Z,31.60
2018-06-27T15:05:04.415Z,31.30
2018-06-27T15:07:33.078Z,32.00
2018-06-27T15:10:01.447Z,33.00
2018-06-27T15:12:30.208Z,34.80
2018-06-27T15:14:58.576Z,34.60
2018-06-27T15:17:26.993Z,34.70
2018-06-27T15:19:55.376Z,34.60
2018-06-27T15:22:23.739Z,34.30
2018-06-27T15:24:52.148Z,35.30
2018-06-27T15:27:20.496Z,35.20
2018-06-27T15:29:55.394Z,35.90
2018-06-27T15:32:23.832Z,35.40
2018-06-27T15:34:52.175Z,35.20
2018-06-27T15:37:20.575Z,34.90
2018-06-27T15:39:48.972Z,35.20
2018-06-27T15:42:17.403Z,35.60
2018-06-27T15:44:45.791Z,35.80
2018-06-27T15:47:14.161Z,36.10
2018-06-27T15:49:42.614Z,36.20
2018-06-27T15:52:11.030Z,36.40
2018-06-27T15:54:39.494Z,36.40
2018-06-27T15:57:07.872Z,36.70
2018-06-27T15:59:36.301Z,36.80
2018-06-27T16:04:32.763Z,37.20
2018-06-27T16:09:29.211Z,37.30
2018-06-27T16:11:57.570Z,37.30
2018-06-27T16:14:25.954Z,37.40
2018-06-27T16:31:43.305Z,38.30
2018-06-27T16:34:11.701Z,39.00
2018-06-27T16:36:40.067Z,38.40
2018-06-27T16:39:09.841Z,38.00
2018-06-27T16:41:38.431Z,38.70
2018-06-27T16:46:35.022Z,39.00
2018-06-27T16:49:03.478Z,39.10
2018-06-27T16:51:32.101Z,39.20
2018-06-27T16:56:28.354Z,39.30
2018-06-27T16:58:56.720Z,39.30
2018-06-27T17:01:25.299Z,39.30
2018-06-27T17:03:53.474Z,39.40
2018-06-27T17:06:21.883Z,39.40
2018-06-27T17:08:50.193Z,39.60
2018-06-27T17:11:18.635Z,39.70
2018-06-27T17:13:47.016Z,39.50
2018-06-27T17:16:15.372Z,39.70
2018-06-27T17:18:43.852Z,40.30
2018-06-27T17:21:12.246Z,39.40
2018-06-27T17:23:40.719Z,39.50
2018-06-27T17:26:09.135Z,39.70
2018-06-27T17:28:37.521Z,39.50
2018-06-27T17:31:05.852Z,38.90
2018-06-27T17:33:34.233Z,38.60
2018-06-27T17:36:02.619Z,38.40
2018-06-27T17:38:31.015Z,38.00
2018-06-27T17:43:27.530Z,38.20
2018-06-27T17:45:55.900Z,38.10
2018-06-27T17:48:24.260Z,37.60
2018-06-27T17:50:52.674Z,37.40
2018-06-27T17:53:21.097Z,37.50
2018-06-27T17:55:49.502Z,37.90
2018-06-27T17:58:17.928Z,38.20
2018-06-27T18:03:14.413Z,38.50
2018-06-27T18:05:42.809Z,38.80
2018-06-27T18:08:11.203Z,38.80
2018-06-27T18:10:39.590Z,38.50
2018-06-27T18:13:07.960Z,39.00
2018-06-27T18:15:36.344Z,39.30
2018-06-27T18:18:04.761Z,39.30
2018-06-27T18:20:33.153Z,39.40
2018-06-27T18:23:01.597Z,39.20
2018-06-27T18:25:30.015Z,39.80
2018-06-27T18:27:58.448Z,40.40
2018-06-27T18:30:26.814Z,40.30
2018-06-27T18:32:55.183Z,40.80
2018-06-27T18:35:23.559Z,40.90
2018-06-27T18:37:51.956Z,41.20
2018-06-27T18:40:20.337Z,42.00
2018-06-27T18:42:48.747Z,41.70
2018-06-27T18:45:17.142Z,41.80
2018-06-27T18:47:45.540Z,42.40
2018-06-27T18:50:13.899Z,42.50
2018-06-27T18:52:42.232Z,42.40
2018-06-27T18:55:10.608Z,41.80
2018-06-27T19:00:08.686Z,42.10
2018-06-27T19:02:37.156Z,42.00
2018-06-27T19:05:06.057Z,42.10
2018-06-27T19:07:34.483Z,42.20
2018-06-27T19:12:31.656Z,42.40
2018-06-27T19:15:00.060Z,43.00
2018-06-27T19:17:28.475Z,43.00
2018-06-27T19:32:17.385Z,43.30
2018-06-27T19:34:45.737Z,43.30
2018-06-27T19:37:14.109Z,43.40
2018-06-27T19:39:42.465Z,43.50
2018-06-27T19:42:10.851Z,43.70
2018-06-27T19:44:39.212Z,43.60
2018-06-27T19:47:07.603Z,43.90
2018-06-27T19:49:36.036Z,44.00
2018-06-27T19:52:04.384Z,44.10
2018-06-27T19:54:32.795Z,44.10
2018-06-27T19:57:01.196Z,44.40
2018-06-27T19:59:29.547Z,44.40
2018-06-27T20:01:57.920Z,44.60
2018-06-27T20:04:26.265Z,44.50
2018-06-27T20:06:54.716Z,44.70
2018-06-27T20:09:23.095Z,44.70
2018-06-27T20:11:51.496Z,44.70
2018-06-27T20:14:20.229Z,44.60
2018-06-27T20:16:48.597Z,44.70
2018-06-27T20:19:17.192Z,44.70
2018-06-27T20:24:13.477Z,44.80
2018-06-27T20:26:41.891Z,44.70
2018-06-27T20:29:10.284Z,44.70
2018-06-27T20:31:38.709Z,44.70
2018-06-27T20:34:07.072Z,44.70
2018-06-27T20:36:35.467Z,44.80
2018-06-27T20:39:06.208Z,44.80
2018-06-27T20:41:34.567Z,45.00
2018-06-27T20:44:03.269Z,44.90
2018-06-27T20:46:31.647Z,45.00
2018-06-27T20:49:00.036Z,45.10
2018-06-27T20:51:29.079Z,45.30
2018-06-27T20:58:53.781Z,51.50
2018-06-27T21:01:22.178Z,53.00
2018-06-27T21:03:50.659Z,53.70
2018-06-27T21:06:19.065Z,53.70
2018-06-27T21:08:47.481Z,54.10
2018-06-27T21:11:15.868Z,53.70
2018-06-27T21:13:44.252Z,54.00
2018-06-27T21:16:12.666Z,53.40
2018-06-27T21:18:41.091Z,53.40
2018-06-27T21:21:09.509Z,53.60
2018-06-27T21:23:37.893Z,53.60
2018-06-27T21:28:34.396Z,53.90
2018-06-27T21:31:02.744Z,54.10
2018-06-27T21:33:32.227Z,54.30
2018-06-27T21:40:56.744Z,52.50
2018-06-27T21:45:53.359Z,53.20
2018-06-27T21:48:21.798Z,52.90
2018-06-27T21:50:50.229Z,53.10
2018-06-27T21:53:18.603Z,53.60
2018-06-27T21:55:47.002Z,53.20
2018-06-27T22:00:43.426Z,53.60
2018-06-27T22:03:11.752Z,52.80
2018-06-27T22:05:40.154Z,53.20
2018-06-27T22:08:08.507Z,53.30
2018-06-27T22:10:37.157Z,53.40
2018-06-27T22:15:33.648Z,53.30
2018-06-27T22:18:02.090Z,53.00
2018-06-27T22:22:58.469Z,52.50
2018-06-27T22:25:27.062Z,53.60
2018-06-27T22:27:55.444Z,52.80
2018-06-27T22:30:23.845Z,53.50
2018-06-27T22:32:52.225Z,53.40
2018-06-27T22:35:20.616Z,53.40
2018-06-27T22:37:48.972Z,53.40
2018-06-27T22:40:17.385Z,53.40
2018-06-27T22:45:14.049Z,53.20
2018-06-27T22:50:10.455Z,53.50
2018-06-27T22:52:38.862Z,53.50
2018-06-27T22:55:07.259Z,53.30
2018-06-27T23:00:03.879Z,53.30
2018-06-27T23:02:32.274Z,53.30
2018-06-27T23:05:00.631Z,53.30
2018-06-27T23:07:29.034Z,53.70
2018-06-27T23:10:00.363Z,53.00
2018-06-27T23:12:28.962Z,53.50
2018-06-27T23:14:57.339Z,53.60
2018-06-27T23:17:25.711Z,53.30
2018-06-27T23:19:54.086Z,53.20
2018-06-27T23:22:33.812Z,53.20
2018-06-27T23:25:02.299Z,53.20
2018-06-27T23:27:30.673Z,53.70
2018-06-27T23:29:59.059Z,53.80
2018-06-27T23:32:27.424Z,53.60
2018-06-27T23:34:56.041Z,53.40
2018-06-27T23:37:24.599Z,53.90
2018-06-27T23:39:52.940Z,53.50
2018-06-27T23:42:21.354Z,53.50
2018-06-27T23:44:49.740Z,53.20
2018-06-27T23:47:18.079Z,53.60
2018-06-27T23:49:46.887Z,53.60
2018-06-27T23:52:15.235Z,53.60
2018-06-27T23:54:43.632Z,53.70
2018-06-27T23:57:12.249Z,53.40
2018-06-27T23:59:40.715Z,53.60
